createdAt,value
2022-09-23T00:01:19.133Z,100114.22
2022-09-23T00:03:46.496Z,100107.44
2022-09-23T00:06:19.228Z,100088.44
2022-09-23T00:08:46.495Z,100084.28
2022-09-23T00:11:16.171Z,100091.06
2022-09-23T00:13:45.137Z,100098.00
2022-09-23T00:16:14.735Z,100096.03
2022-09-23T00:18:42.397Z,100095.69
2022-09-23T00:21:12.575Z,100099.31
2022-09-23T00:23:40.533Z,100093.31
2022-09-23T00:26:09.425Z,100099.31
2022-09-23T00:28:45.840Z,100099.16
2022-09-23T00:31:15.512Z,100103.44
2022-09-23T00:33:42.746Z,100096.66
2022-09-23T00:36:12.049Z,100110.69
2022-09-23T00:38:38.942Z,100096.78
2022-09-23T00:41:06.351Z,100104.56
2022-09-23T00:43:42.496Z,100094.97
2022-09-23T00:46:13.576Z,100080.09
2022-09-23T00:48:42.773Z,100094.97
2022-09-23T00:51:14.513Z,100094.81
2022-09-23T00:53:41.730Z,100095.97
2022-09-23T00:56:11.778Z,100086.38
2022-09-23T00:58:40.941Z,100092.28
2022-09-23T01:01:08.059Z,100059.38
2022-09-23T01:03:35.151Z,100077.56
2022-09-23T01:06:01.902Z,100071.94
2022-09-23T01:08:29.090Z,100086.31
2022-09-23T01:11:22.996Z,100085.31
2022-09-23T01:14:22.018Z,100087.59
2022-09-23T01:16:58.208Z,100086.31
2022-09-23T01:19:51.364Z,100075.75
2022-09-23T01:22:48.169Z,100071.47
2022-09-23T01:25:33.265Z,100073.78
2022-09-23T01:28:20.689Z,100071.28
2022-09-23T01:30:59.744Z,100060.53
2022-09-23T01:33:45.281Z,100070.47
2022-09-23T01:36:39.485Z,100073.25
2022-09-23T01:39:37.187Z,100037.72
2022-09-23T01:42:22.942Z,100043.31
2022-09-23T01:44:59.944Z,100053.38
2022-09-23T01:47:36.219Z,100023.16
2022-09-23T01:50:44.021Z,100044.00
2022-09-23T01:53:20.757Z,100057.88
2022-09-23T01:55:57.253Z,100056.22
2022-09-23T01:58:45.121Z,100057.38
2022-09-23T02:01:18.561Z,100048.81
2022-09-23T02:03:51.164Z,100020.88
2022-09-23T02:06:23.280Z,100054.56
2022-09-23T02:09:00.163Z,100041.06
2022-09-23T02:11:27.603Z,100051.13
2022-09-23T02:14:06.902Z,100022.88
2022-09-23T02:16:41.153Z,100046.72
2022-09-23T02:19:11.506Z,100052.59
2022-09-23T02:21:42.085Z,100044.47
2022-09-23T02:24:16.768Z,100023.47
2022-09-23T02:26:54.934Z,100054.84
2022-09-23T02:29:29.359Z,100048.22
2022-09-23T02:32:46.661Z,100044.09
2022-09-23T02:35:18.078Z,100040.97
2022-09-23T02:38:01.783Z,100000.50
2022-09-23T02:40:40.913Z,100026.13
2022-09-23T02:43:10.386Z,100042.13
2022-09-23T02:45:39.443Z,100038.63
2022-09-23T02:48:14.900Z,100033.88
2022-09-23T02:50:42.234Z,100016.19
2022-09-23T02:53:09.078Z,100019.66
2022-09-23T02:55:36.128Z,100039.47
2022-09-23T02:58:05.391Z,100021.47
2022-09-23T03:00:38.568Z,99975.16
2022-09-23T03:03:40.782Z,100008.50
2022-09-23T03:06:27.482Z,99980.84
2022-09-23T03:09:13.201Z,100021.50
2022-09-23T03:11:46.997Z,100005.66
2022-09-23T03:14:39.209Z,100016.75
2022-09-23T03:17:19.956Z,100002.19
2022-09-23T03:20:06.978Z,100013.84
2022-09-23T03:22:39.358Z,100014.19
2022-09-23T03:25:10.778Z,99994.66
2022-09-23T03:27:39.138Z,99990.22
2022-09-23T03:30:07.517Z,99980.44
2022-09-23T03:32:36.437Z,100005.06
2022-09-23T03:35:05.328Z,99991.38
2022-09-23T03:37:41.029Z,100004.44
2022-09-23T03:40:15.518Z,99992.69
2022-09-23T03:42:42.565Z,99979.03
2022-09-23T03:45:17.029Z,99969.97
2022-09-23T03:47:44.186Z,99990.28
2022-09-23T03:50:13.396Z,99986.63
2022-09-23T03:52:40.487Z,99964.84
2022-09-23T03:55:08.095Z,99989.78
2022-09-23T03:57:34.988Z,99966.34
2022-09-23T04:00:02.084Z,99996.88
2022-09-23T04:02:39.138Z,99990.63
2022-09-23T04:05:07.191Z,99988.47
2022-09-23T04:07:34.195Z,99986.38
2022-09-23T04:10:00.965Z,99982.56
2022-09-23T04:12:27.668Z,99989.16
2022-09-23T04:14:54.391Z,99979.75
2022-09-23T04:17:21.112Z,99972.22
2022-09-23T04:19:47.835Z,99963.75
2022-09-23T04:22:14.685Z,99981.63
2022-09-23T04:24:41.318Z,99994.00
2022-09-23T04:27:07.933Z,99951.44
2022-09-23T04:29:34.633Z,99985.66
2022-09-23T04:32:02.561Z,99978.72
2022-09-23T04:34:29.280Z,99981.22
2022-09-23T04:36:55.985Z,99983.81
2022-09-23T04:39:22.678Z,99942.00
2022-09-23T04:41:49.444Z,99976.88
2022-09-23T04:44:16.416Z,99969.38
2022-09-23T04:46:47.529Z,99981.88
2022-09-23T04:49:15.738Z,99977.94
2022-09-23T04:51:43.747Z,99980.06
2022-09-23T04:54:11.975Z,99975.78
2022-09-23T04:56:39.884Z,99994.44
2022-09-23T04:59:07.471Z,99992.47
2022-09-23T05:01:36.256Z,99988.69
2022-09-23T05:04:07.200Z,99990.66
2022-09-23T05:06:35.289Z,99968.38
2022-09-23T05:09:05.129Z,99990.03
2022-09-23T05:11:32.141Z,99967.69
2022-09-23T05:13:59.237Z,100003.34
2022-09-23T05:16:27.233Z,99995.28
2022-09-23T05:18:54.453Z,100005.31
2022-09-23T05:21:23.393Z,100004.28
2022-09-23T05:23:55.569Z,100005.16
2022-09-23T05:26:25.396Z,100003.16
2022-09-23T05:28:53.081Z,99997.25
2022-09-23T05:31:29.927Z,99999.72
2022-09-23T05:34:00.857Z,99975.97
2022-09-23T05:36:33.077Z,99978.63
2022-09-23T05:39:11.059Z,99999.31
2022-09-23T05:41:38.267Z,99988.03
2022-09-23T05:44:08.000Z,100000.56
2022-09-23T05:46:38.133Z,99988.53
2022-09-23T05:49:06.073Z,99984.06
2022-09-23T05:51:38.364Z,100012.81
2022-09-23T05:54:05.780Z,100007.53
2022-09-23T05:56:36.589Z,99967.88
2022-09-23T05:59:04.836Z,100000.91
2022-09-23T06:01:35.356Z,100004.84
2022-09-23T06:04:15.902Z,99987.50
2022-09-23T06:06:44.317Z,99990.00
2022-09-23T06:09:14.835Z,99959.63
2022-09-23T06:11:47.389Z,99978.94
2022-09-23T06:14:17.223Z,99953.38
2022-09-23T06:16:50.901Z,99963.97
2022-09-23T06:19:29.089Z,99990.72
2022-09-23T06:22:04.367Z,99967.91
2022-09-23T06:24:56.334Z,99993.81
2022-09-23T06:27:54.844Z,99998.75
2022-09-23T06:30:45.665Z,99995.25
2022-09-23T06:33:48.408Z,99979.56
2022-09-23T06:36:47.778Z,99988.22
2022-09-23T06:39:35.766Z,99975.56
2022-09-23T06:42:29.485Z,99979.06
2022-09-23T06:45:03.354Z,99973.75
2022-09-23T06:50:25.814Z,99965.22
2022-09-23T06:53:19.384Z,99989.84
2022-09-23T06:55:49.065Z,99987.59
2022-09-23T07:09:01.062Z,99977.38
2022-09-23T07:11:48.893Z,99982.28
2022-09-23T07:18:10.506Z,99988.88
2022-09-23T07:20:58.046Z,99986.28
2022-09-23T07:23:25.753Z,99973.28
2022-09-23T07:26:01.068Z,99977.59
2022-09-23T07:28:28.998Z,99978.59
2022-09-23T07:31:39.505Z,99971.50
2022-09-23T07:34:19.114Z,99976.78
2022-09-23T07:36:55.841Z,99973.00
2022-09-23T07:39:31.242Z,99987.53
2022-09-23T07:42:18.165Z,99993.09
2022-09-23T07:44:45.270Z,99992.34
2022-09-23T07:47:14.106Z,99996.28
2022-09-23T07:49:41.397Z,99996.34
2022-09-23T07:52:24.913Z,99994.81
2022-09-23T07:54:51.749Z,99994.72
2022-09-23T07:57:26.576Z,100008.94
2022-09-23T07:59:53.290Z,99977.91
2022-09-23T08:02:33.873Z,99974.19
2022-09-23T08:05:00.681Z,99986.72
2022-09-23T08:07:37.529Z,100001.75
2022-09-23T08:10:20.742Z,99998.50
2022-09-23T08:13:36.969Z,100013.03
2022-09-23T08:16:12.833Z,99999.06
2022-09-23T08:22:03.534Z,99990.22
2022-09-23T08:24:33.315Z,100002.91
2022-09-23T08:27:14.919Z,100009.38
2022-09-23T08:29:44.565Z,100002.81
2022-09-23T08:32:14.518Z,99994.22
2022-09-23T08:34:41.563Z,100004.78
2022-09-23T08:37:19.310Z,100001.44
2022-09-23T08:39:49.547Z,99986.06
2022-09-23T08:42:30.793Z,99982.41
2022-09-23T08:45:09.675Z,100008.03
2022-09-23T08:47:47.078Z,99972.84
2022-09-23T08:50:33.577Z,100005.84
2022-09-23T08:53:08.041Z,100000.84
2022-09-23T08:59:43.820Z,99992.59
2022-09-23T09:06:16.780Z,99973.63
2022-09-23T09:09:33.494Z,99981.66
2022-09-23T09:12:10.923Z,99983.69
2022-09-23T09:14:58.529Z,99969.22
2022-09-23T09:17:35.152Z,99984.19
2022-09-23T09:20:36.069Z,99980.94
2022-09-23T09:23:37.573Z,99976.16
2022-09-23T09:26:06.272Z,99943.22
2022-09-23T09:28:51.830Z,99968.63
2022-09-23T09:31:33.250Z,99971.41
2022-09-23T09:34:36.710Z,99962.25
2022-09-23T09:37:12.811Z,99963.69
2022-09-23T09:39:39.457Z,99929.66
2022-09-23T09:42:07.463Z,99960.88
2022-09-23T09:44:48.010Z,99929.69
2022-09-23T09:47:28.584Z,99945.06
2022-09-23T09:50:11.547Z,99954.69
2022-09-23T09:52:38.213Z,99947.69
2022-09-23T09:55:13.639Z,99950.63
2022-09-23T09:57:49.658Z,99943.16
2022-09-23T10:00:25.409Z,99942.53
2022-09-23T10:02:55.448Z,99936.41
2022-09-23T10:05:33.481Z,99935.09
2022-09-23T10:08:21.144Z,99921.47
2022-09-23T10:11:06.895Z,99924.94
2022-09-23T10:13:33.821Z,99919.91
2022-09-23T10:16:03.771Z,99902.56
2022-09-23T10:18:47.206Z,99914.16
2022-09-23T10:21:16.068Z,99884.22
2022-09-23T10:23:52.470Z,99916.47
2022-09-23T10:26:45.928Z,99922.88
2022-09-23T10:29:33.223Z,99917.72
2022-09-23T10:32:25.886Z,99913.41
2022-09-23T10:35:24.433Z,99904.50
2022-09-23T10:37:54.996Z,99896.06
2022-09-23T10:41:02.116Z,99899.59
2022-09-23T10:44:11.466Z,99892.59
2022-09-23T10:47:02.669Z,99893.44
2022-09-23T10:49:38.703Z,99886.81
2022-09-23T10:52:36.455Z,99890.38
2022-09-23T10:55:09.276Z,99890.50
2022-09-23T10:57:44.877Z,99885.28
2022-09-23T11:00:29.698Z,99882.47
2022-09-23T11:03:09.336Z,99874.72
2022-09-23T11:05:38.788Z,99868.97
2022-09-23T11:08:24.955Z,99867.34
2022-09-23T11:10:57.987Z,99869.81
2022-09-23T11:13:42.842Z,99865.97
2022-09-23T11:16:31.678Z,99858.75
2022-09-23T11:19:15.428Z,99854.34
2022-09-23T11:21:50.016Z,99841.91
2022-09-23T11:24:25.511Z,99847.63
2022-09-23T11:27:18.397Z,99860.41
2022-09-23T11:30:12.598Z,99857.06
2022-09-23T11:32:59.571Z,99855.91
2022-09-23T11:35:35.687Z,99820.50
2022-09-23T11:38:15.326Z,99844.88
2022-09-23T11:40:49.283Z,99824.34
2022-09-23T11:43:39.839Z,99836.50
2022-09-23T11:46:32.205Z,99831.09
2022-09-23T11:49:03.260Z,99819.94
2022-09-23T11:51:39.797Z,99806.25
2022-09-23T11:54:20.612Z,99821.50
2022-09-23T11:56:56.968Z,99805.09
2022-09-23T11:59:43.744Z,99817.00
2022-09-23T12:02:30.802Z,99812.66
2022-09-23T12:05:08.213Z,99815.63
2022-09-23T12:07:56.672Z,99811.47
2022-09-23T12:10:43.351Z,99802.94
2022-09-23T12:13:20.654Z,99816.06
2022-09-23T12:16:14.883Z,99811.88
2022-09-23T12:19:01.342Z,99788.72
2022-09-23T12:21:51.072Z,99803.00
2022-09-23T12:24:36.147Z,99799.00
2022-09-23T12:27:46.706Z,99795.28
2022-09-23T12:30:24.993Z,99800.50
2022-09-23T12:32:52.579Z,99796.16
2022-09-23T12:35:37.738Z,99788.47
2022-09-23T12:38:14.141Z,99791.34
2022-09-23T12:40:43.987Z,99786.59
2022-09-23T12:43:31.316Z,99772.91
2022-09-23T12:46:27.253Z,99776.91
2022-09-23T12:48:57.291Z,99784.00
2022-09-23T12:51:34.793Z,99780.75
2022-09-23T12:54:04.535Z,99776.94
2022-09-23T12:56:31.332Z,99761.81
2022-09-23T12:59:16.274Z,99762.06
2022-09-23T13:01:49.006Z,99765.53
2022-09-23T13:04:46.868Z,99761.50
2022-09-23T13:07:17.621Z,99749.88
2022-09-23T13:09:51.170Z,99728.75
2022-09-23T13:12:39.959Z,99753.66
2022-09-23T13:15:36.337Z,99732.03
2022-09-23T13:18:21.153Z,99755.25
2022-09-23T13:20:52.798Z,99735.75
2022-09-23T13:23:20.310Z,99752.50
2022-09-23T13:25:48.434Z,99734.94
2022-09-23T13:28:53.599Z,99742.03
2022-09-23T13:31:21.260Z,99745.44
2022-09-23T13:33:59.561Z,99714.13
2022-09-23T13:36:26.981Z,99730.34
2022-09-23T13:38:53.799Z,99707.41
2022-09-23T13:41:23.818Z,99727.19
2022-09-23T13:43:59.018Z,99727.13
2022-09-23T13:46:32.687Z,99726.31
2022-09-23T13:48:59.505Z,99723.09
2022-09-23T13:51:30.328Z,99736.63
2022-09-23T13:54:02.159Z,99720.91
2022-09-23T13:56:31.751Z,99730.38
2022-09-23T13:59:23.753Z,99721.13
2022-09-23T14:01:50.620Z,99720.19
2022-09-23T14:04:25.312Z,99723.69
2022-09-23T14:06:53.817Z,99713.25
2022-09-23T14:09:24.428Z,99713.78
2022-09-23T14:11:52.122Z,99683.16
2022-09-23T14:14:29.286Z,99714.13
2022-09-23T14:16:57.979Z,99709.13
2022-09-23T14:19:25.912Z,99705.59
2022-09-23T14:21:54.828Z,99699.63
2022-09-23T14:24:32.255Z,99697.19
2022-09-23T14:27:15.621Z,99657.63
2022-09-23T14:29:47.855Z,99682.88
2022-09-23T14:32:21.063Z,99663.59
2022-09-23T14:34:50.694Z,99684.25
2022-09-23T14:37:57.392Z,99690.53
2022-09-23T14:40:53.712Z,99681.00
2022-09-23T14:43:26.386Z,99686.38
2022-09-23T14:45:56.148Z,99686.88
2022-09-23T14:48:32.274Z,99688.66
2022-09-23T14:51:05.969Z,99662.59
2022-09-23T14:53:43.893Z,99683.94
2022-09-23T14:56:19.855Z,99677.53
2022-09-23T14:58:58.254Z,99666.34
2022-09-23T15:01:31.215Z,99668.88
2022-09-23T15:04:36.947Z,99672.81
2022-09-23T15:07:09.453Z,99662.56
2022-09-23T15:10:16.124Z,99662.03
2022-09-23T15:12:46.250Z,99665.78
2022-09-23T15:15:14.837Z,99662.84
2022-09-23T15:17:41.557Z,99643.69
2022-09-23T15:20:21.393Z,99656.94
2022-09-23T15:22:50.759Z,99654.47
2022-09-23T15:25:55.114Z,99665.72
2022-09-23T15:28:25.047Z,99663.38
2022-09-23T15:30:51.744Z,99666.28
2022-09-23T15:33:36.687Z,99671.56
2022-09-23T15:36:03.693Z,99652.69
2022-09-23T15:38:30.874Z,99645.28
2022-09-23T15:40:57.663Z,99669.66
2022-09-23T15:43:26.816Z,99669.59
2022-09-23T15:45:57.584Z,99677.91
2022-09-23T15:48:32.158Z,99664.41
2022-09-23T15:51:04.141Z,99674.13
2022-09-23T15:53:31.528Z,99664.97
2022-09-23T15:56:00.024Z,99663.63
2022-09-23T19:51:48.290Z,99628.09
2022-09-23T19:54:20.602Z,99627.06
2022-09-23T19:56:48.648Z,99610.75
2022-09-23T19:59:18.800Z,99641.28
2022-09-23T20:01:46.413Z,99639.91
2022-09-23T20:04:13.290Z,99614.97
2022-09-23T20:06:42.576Z,99629.69
2022-09-23T20:09:09.328Z,99601.25
2022-09-23T20:11:36.133Z,99624.75
2022-09-23T20:14:05.801Z,99633.97
2022-09-23T20:16:35.936Z,99610.63
2022-09-23T20:19:04.262Z,99627.22
2022-09-23T20:21:31.433Z,99620.06
2022-09-23T20:23:58.547Z,99602.03
2022-09-23T20:26:44.196Z,99618.81
2022-09-23T20:29:14.397Z,99621.25
2022-09-23T20:31:41.521Z,99593.88
2022-09-23T20:34:10.383Z,99599.38
2022-09-23T20:36:37.411Z,99597.59
2022-09-23T20:39:09.522Z,99616.22
2022-09-23T20:41:38.975Z,99588.53
2022-09-23T20:44:09.606Z,99602.03
2022-09-23T20:46:36.564Z,99599.56
2022-09-23T20:49:04.216Z,99571.31
2022-09-23T20:51:33.162Z,99603.09
2022-09-23T20:54:00.159Z,99582.59
2022-09-23T20:56:27.510Z,99606.75
2022-09-23T20:58:54.147Z,99575.00
2022-09-23T21:01:21.423Z,99612.88
2022-09-23T21:03:51.308Z,99599.34
2022-09-23T21:06:19.434Z,99573.16
2022-09-23T21:08:46.867Z,99580.34
2022-09-23T21:11:16.260Z,99591.78
2022-09-23T21:13:50.804Z,99588.72
2022-09-23T21:16:19.744Z,99594.66
2022-09-23T21:18:47.944Z,99591.78
2022-09-23T21:21:15.085Z,99600.16
2022-09-23T21:23:43.441Z,99605.69
2022-09-23T21:26:12.497Z,99604.25
2022-09-23T21:28:43.837Z,99580.13
2022-09-23T21:31:25.674Z,99604.06
2022-09-23T21:33:58.959Z,99601.19
2022-09-23T21:36:27.377Z,99591.38
2022-09-23T21:38:55.493Z,99591.59
2022-09-23T21:41:23.582Z,99609.59
2022-09-23T21:43:50.855Z,99591.97
2022-09-23T21:46:20.548Z,99609.59
2022-09-23T21:48:52.844Z,99607.97
2022-09-23T21:51:20.879Z,99617.16
2022-09-23T21:53:58.208Z,99602.81
2022-09-23T21:56:27.495Z,99615.09
2022-09-23T21:58:56.014Z,99609.97
2022-09-23T22:01:24.960Z,99617.75
2022-09-23T22:03:54.041Z,99585.59
2022-09-23T22:06:27.098Z,99623.28
2022-09-23T22:08:59.021Z,99632.50
2022-09-23T22:11:49.872Z,99623.69
2022-09-23T22:14:18.904Z,99619.38
2022-09-23T22:16:48.503Z,99626.94
2022-09-23T22:19:15.531Z,99626.72
2022-09-23T22:21:44.004Z,99642.44
2022-09-23T22:24:11.676Z,99629.97
2022-09-23T22:26:49.689Z,99634.44
2022-09-23T22:29:35.778Z,99602.03
2022-09-23T22:32:24.518Z,99597.09
2022-09-23T22:34:52.689Z,99625.59
2022-09-23T22:37:27.896Z,99618.44
2022-09-23T22:39:54.644Z,99620.94
2022-09-23T22:42:22.258Z,99615.22
2022-09-23T22:44:49.460Z,99585.09
2022-09-23T22:47:17.876Z,99617.66
2022-09-23T22:49:46.039Z,99599.22
2022-09-23T22:52:15.089Z,99607.84
2022-09-23T22:54:42.119Z,99605.63
2022-09-23T22:57:09.784Z,99590.44
2022-09-23T22:59:37.607Z,99561.78
2022-09-23T23:02:06.466Z,99577.78
2022-09-23T23:04:33.500Z,99586.78
2022-09-23T23:07:00.126Z,99586.00
2022-09-23T23:09:26.791Z,99584.31
2022-09-23T23:11:53.399Z,99582.88
2022-09-23T23:14:20.390Z,99579.38
2022-09-23T23:16:47.555Z,99584.25
2022-09-23T23:19:16.968Z,99561.13
2022-09-23T23:21:45.311Z,99578.31
2022-09-23T23:24:20.392Z,99585.03
2022-09-23T23:26:47.396Z,99574.22
2022-09-23T23:29:16.820Z,99575.59
2022-09-23T23:31:43.992Z,99578.47
2022-09-23T23:34:13.044Z,99568.06
2022-09-23T23:36:40.267Z,99560.53
2022-09-23T23:39:07.894Z,99557.50
2022-09-23T23:41:34.644Z,99555.28
2022-09-23T23:44:02.652Z,99538.13
2022-09-23T23:46:31.134Z,99559.19
2022-09-23T23:48:59.106Z,99549.34
2022-09-23T23:51:26.952Z,99562.22
2022-09-23T23:53:54.595Z,99555.44
2022-09-23T23:56:23.315Z,99558.91
2022-09-23T23:58:56.839Z,99559.72
